createdAt,value
2023-05-21T00:02:51.675Z,100893.63
2023-05-21T00:06:53.117Z,100892.00
2023-05-21T00:10:54.610Z,100891.53
2023-05-21T00:14:56.034Z,100890.16
2023-05-21T00:18:58.263Z,100877.31
2023-05-21T00:23:02.861Z,100879.28
2023-05-21T00:27:04.419Z,100870.66
2023-05-21T00:31:06.291Z,100869.63
2023-05-21T00:35:08.450Z,100859.72
2023-05-21T00:39:09.902Z,100858.09
2023-05-21T00:43:11.322Z,100858.09
2023-05-21T00:47:13.803Z,100852.25
2023-05-21T00:51:16.527Z,100853.84
2023-05-21T00:55:18.463Z,100855.03
2023-05-21T00:59:19.946Z,100852.00
2023-05-21T01:03:23.179Z,100846.59
2023-05-21T01:07:24.643Z,100843.97
2023-05-21T01:11:39.341Z,100842.53
2023-05-21T01:15:40.921Z,100847.44
2023-05-21T01:19:44.501Z,100849.97
2023-05-21T01:23:46.426Z,100846.41
2023-05-21T01:27:47.856Z,100841.06
2023-05-21T01:32:04.131Z,100837.66
2023-05-21T01:36:27.163Z,100835.78
2023-05-21T01:40:34.670Z,100834.09
2023-05-21T01:44:37.396Z,100824.25
2023-05-21T01:48:39.175Z,100828.50
2023-05-21T01:52:49.008Z,100828.44
2023-05-21T01:56:51.401Z,100830.06
2023-05-21T02:00:52.997Z,100831.78
2023-05-21T02:04:54.476Z,100823.97
2023-05-21T02:08:56.486Z,100833.66
2023-05-21T02:12:59.283Z,100826.16
2023-05-21T02:17:00.935Z,100838.25
2023-05-21T02:21:02.377Z,100826.41
2023-05-21T02:25:04.618Z,100829.19
2023-05-21T02:29:06.561Z,100831.72
2023-05-21T02:33:09.154Z,100822.69
2023-05-21T02:37:10.753Z,100817.72
2023-05-21T02:41:12.441Z,100815.50
2023-05-21T02:45:13.967Z,100813.47
2023-05-21T02:49:15.416Z,100816.91
2023-05-21T02:53:16.842Z,100818.81
2023-05-21T02:57:18.371Z,100806.88
2023-05-21T03:01:19.863Z,100810.81
2023-05-21T03:05:21.631Z,100816.34
2023-05-21T03:09:23.188Z,100801.00
2023-05-21T03:13:24.596Z,100801.91
2023-05-21T03:17:26.035Z,100795.59
2023-05-21T03:21:30.165Z,100789.44
2023-05-21T03:25:31.644Z,100798.25
2023-05-21T03:29:33.591Z,100803.31
2023-05-21T03:33:35.191Z,100803.00
2023-05-21T03:37:36.664Z,100804.66
2023-05-21T03:41:38.240Z,100798.63
2023-05-21T03:45:42.110Z,100795.09
2023-05-21T03:49:45.053Z,100796.31
2023-05-21T03:53:46.601Z,100796.81
2023-05-21T03:57:48.122Z,100800.66
2023-05-21T04:01:49.545Z,100801.31
2023-05-21T04:05:51.009Z,100797.91
2023-05-21T04:09:52.988Z,100790.88
2023-05-21T04:13:54.354Z,100790.03
2023-05-21T04:17:55.773Z,100797.59
2023-05-21T04:21:58.170Z,100793.34
2023-05-21T04:26:01.521Z,100792.94
2023-05-21T04:30:04.320Z,100785.81
2023-05-21T04:34:06.297Z,100791.97
2023-05-21T04:38:08.432Z,100789.66
2023-05-21T04:42:11.011Z,100803.53
2023-05-21T04:46:12.793Z,100803.28
2023-05-21T04:50:14.646Z,100801.59
2023-05-21T04:54:16.064Z,100795.56
2023-05-21T04:58:18.964Z,100795.09
2023-05-21T05:02:20.488Z,100796.16
2023-05-21T05:06:22.222Z,100800.16
2023-05-21T05:10:23.769Z,100789.53
2023-05-21T05:14:25.129Z,100803.22
2023-05-21T05:18:26.534Z,100797.28
2023-05-21T05:22:27.862Z,100801.84
2023-05-21T05:26:29.328Z,100803.72
2023-05-21T05:30:30.853Z,100807.88
2023-05-21T05:34:32.365Z,100798.31
2023-05-21T05:38:34.466Z,100796.34
2023-05-21T05:42:36.000Z,100794.69
2023-05-21T05:46:37.572Z,100795.31
2023-05-21T05:50:39.204Z,100787.22
2023-05-21T05:54:40.524Z,100787.88
2023-05-21T05:58:41.930Z,100789.28
2023-05-21T06:02:43.529Z,100786.00
2023-05-21T06:06:44.991Z,100774.66
2023-05-21T06:10:46.433Z,100786.94
2023-05-21T06:14:49.067Z,100786.50
2023-05-21T06:18:50.544Z,100774.56
2023-05-21T06:22:52.015Z,100779.50
2023-05-21T06:26:53.410Z,100774.97
2023-05-21T06:30:54.942Z,100772.41
2023-05-21T06:34:56.272Z,100772.81
2023-05-21T06:38:57.705Z,100784.19
2023-05-21T06:42:59.944Z,100766.28
2023-05-21T06:47:01.488Z,100772.94
2023-05-21T06:51:03.200Z,100773.38
2023-05-21T06:55:04.974Z,100768.97
2023-05-21T06:59:06.332Z,100777.13
2023-05-21T07:03:07.955Z,100779.69
2023-05-21T07:07:10.536Z,100782.84
2023-05-21T07:11:12.132Z,100793.69
2023-05-21T07:15:13.545Z,100793.28
2023-05-21T07:19:15.530Z,100782.72
2023-05-21T07:23:17.003Z,100793.53
2023-05-21T07:31:26.054Z,100790.31
2023-05-21T07:35:27.584Z,100789.50
2023-05-21T07:39:29.008Z,100789.50
2023-05-21T07:43:31.667Z,100789.00
2023-05-21T07:47:33.143Z,100790.31
2023-05-21T07:51:34.726Z,100795.88
2023-05-21T07:55:36.472Z,100787.78
2023-05-21T07:59:38.134Z,100777.31
2023-05-21T08:03:39.760Z,100772.97
2023-05-21T08:07:41.305Z,100792.19
2023-05-21T08:11:42.861Z,100787.72
2023-05-21T08:15:44.365Z,100793.38
2023-05-21T08:19:45.825Z,100788.25
2023-05-21T08:23:47.204Z,100780.59
2023-05-21T08:27:49.883Z,100780.50
2023-05-21T08:31:52.521Z,100769.94
2023-05-21T08:35:54.267Z,100764.72
2023-05-21T08:39:55.792Z,100762.34
2023-05-21T08:44:00.221Z,100768.56
2023-05-21T08:48:01.948Z,100766.59
2023-05-21T08:52:04.705Z,100755.31
2023-05-21T08:56:06.892Z,100754.13
2023-05-21T09:00:08.838Z,100759.31
2023-05-21T09:04:20.276Z,100754.44
2023-05-21T09:08:29.748Z,100751.16
2023-05-21T09:12:32.011Z,100737.03
2023-05-21T09:16:33.453Z,100744.34
2023-05-21T09:20:35.025Z,100755.13
2023-05-21T09:24:36.647Z,100752.28
2023-05-21T09:28:38.003Z,100743.91
2023-05-21T09:32:40.653Z,100747.47
2023-05-21T09:36:43.727Z,100747.59
2023-05-21T09:40:47.772Z,100739.13
2023-05-21T09:44:49.351Z,100743.06
2023-05-21T09:48:50.758Z,100738.84
2023-05-21T09:52:55.549Z,100726.84
2023-05-21T09:56:57.007Z,100730.63
2023-05-21T10:00:58.984Z,100729.91
2023-05-21T10:05:00.537Z,100728.78
2023-05-21T10:09:06.970Z,100729.88
2023-05-21T10:13:12.590Z,100716.34
2023-05-21T10:17:14.621Z,100717.44
2023-05-21T10:21:16.857Z,100708.28
2023-05-21T10:25:18.958Z,100704.94
2023-05-21T10:29:21.144Z,100692.50
2023-05-21T10:33:24.206Z,100697.38
2023-05-21T10:37:27.495Z,100687.34
2023-05-21T10:41:38.485Z,100678.94
2023-05-21T10:45:50.862Z,100664.91
2023-05-21T10:49:52.158Z,100666.72
2023-05-21T10:54:24.693Z,100669.69
2023-05-21T10:59:01.881Z,100664.19
2023-05-21T11:03:04.779Z,100654.78
2023-05-21T11:07:06.434Z,100656.56
2023-05-21T11:11:08.241Z,100657.22
2023-05-21T11:15:16.268Z,100652.78
2023-05-21T11:19:18.210Z,100650.31
2023-05-21T11:23:20.940Z,100656.31
2023-05-21T11:27:41.957Z,100642.94
2023-05-21T11:31:48.403Z,100647.84
2023-05-21T11:35:49.962Z,100638.25
2023-05-21T11:39:51.728Z,100641.00
2023-05-21T11:44:01.045Z,100628.72
2023-05-21T11:48:03.408Z,100617.31
2023-05-21T11:52:12.558Z,100617.00
2023-05-21T11:56:14.264Z,100615.91
2023-05-21T12:00:17.517Z,100624.63
2023-05-21T12:04:19.744Z,100617.19
2023-05-21T12:08:26.933Z,100621.59
2023-05-21T12:12:38.523Z,100607.97
2023-05-21T12:16:44.242Z,100611.81
2023-05-21T12:20:45.825Z,100615.53
2023-05-21T12:24:48.589Z,100608.91
2023-05-21T12:28:50.070Z,100615.69
2023-05-21T12:32:51.523Z,100611.41
2023-05-21T12:36:53.102Z,100611.91
2023-05-21T12:40:54.535Z,100621.16
2023-05-21T12:44:56.888Z,100623.03
2023-05-21T12:48:58.358Z,100606.44
2023-05-21T12:52:59.887Z,100605.19
2023-05-21T12:57:14.670Z,100595.47
2023-05-21T13:01:16.130Z,100594.59
2023-05-21T13:05:18.337Z,100598.44
2023-05-21T13:09:19.821Z,100596.63
2023-05-21T13:13:21.204Z,100590.66
2023-05-21T13:17:23.675Z,100588.56
2023-05-21T13:21:25.117Z,100595.84
2023-05-21T13:25:30.011Z,100596.94
2023-05-21T13:29:31.547Z,100591.03
2023-05-21T13:33:33.207Z,100591.50
2023-05-21T13:37:38.109Z,100584.63
2023-05-21T13:41:39.563Z,100581.19
2023-05-21T13:45:41.039Z,100578.59
2023-05-21T13:49:42.527Z,100574.09
2023-05-21T13:53:43.864Z,100572.09
2023-05-21T13:57:46.071Z,100568.97
2023-05-21T14:01:49.812Z,100563.28
2023-05-21T14:05:53.636Z,100558.63
2023-05-21T14:09:55.965Z,100549.91
2023-05-21T14:13:58.315Z,100559.16
2023-05-21T14:17:59.779Z,100558.13
2023-05-21T14:22:01.303Z,100567.34
2023-05-21T14:26:02.912Z,100559.22
2023-05-21T14:30:05.136Z,100558.97
2023-05-21T14:34:09.567Z,100562.19
2023-05-21T14:38:11.238Z,100553.34
2023-05-21T14:42:12.617Z,100561.19
2023-05-21T14:46:14.046Z,100555.69
2023-05-21T14:50:16.323Z,100554.22
2023-05-21T14:54:17.848Z,100553.66
2023-05-21T14:58:19.407Z,100550.13
2023-05-21T15:02:20.836Z,100546.19
2023-05-21T15:06:22.436Z,100554.50
2023-05-21T15:10:25.222Z,100541.81
2023-05-21T15:14:26.646Z,100538.53
2023-05-21T15:18:29.272Z,100532.19
2023-05-21T15:22:34.156Z,100543.38
2023-05-21T15:26:35.600Z,100536.91
2023-05-21T15:30:39.746Z,100528.03
2023-05-21T15:34:41.305Z,100525.38
2023-05-21T15:38:42.756Z,100513.59
2023-05-21T15:42:44.324Z,100513.06
2023-05-21T15:46:45.828Z,100516.22
2023-05-21T15:50:47.304Z,100519.91
2023-05-21T15:54:48.737Z,100524.31
2023-05-21T15:58:50.275Z,100519.22
2023-05-21T16:02:51.805Z,100510.50
2023-05-21T16:06:53.277Z,100513.84
2023-05-21T16:10:54.779Z,100523.53
2023-05-21T16:14:56.202Z,100527.50
2023-05-21T16:18:57.600Z,100517.63
2023-05-21T16:22:59.021Z,100511.75
2023-05-21T16:27:00.725Z,100510.88
2023-05-21T16:31:02.704Z,100505.31
2023-05-21T16:35:04.536Z,100510.28
2023-05-21T16:39:06.270Z,100513.81
2023-05-21T16:43:10.534Z,100525.59
2023-05-21T16:47:11.906Z,100536.94
2023-05-21T16:51:13.339Z,100537.63
2023-05-21T16:55:15.682Z,100555.16
2023-05-21T16:59:17.090Z,100560.78
2023-05-21T17:03:18.641Z,100562.38
2023-05-21T17:07:20.264Z,100559.31
2023-05-21T17:11:21.784Z,100553.22
2023-05-21T17:15:23.196Z,100556.19
2023-05-21T17:19:24.637Z,100567.81
2023-05-21T17:23:26.048Z,100580.63
2023-05-21T17:27:27.507Z,100589.72
2023-05-21T17:31:32.273Z,100615.06
2023-05-21T17:35:34.023Z,100612.34
2023-05-21T17:39:35.629Z,100591.75
2023-05-21T17:43:37.179Z,100592.91
2023-05-21T17:47:38.589Z,100597.38
2023-05-21T17:51:40.064Z,100592.56
2023-05-21T17:55:41.397Z,100580.19
2023-05-21T17:59:45.083Z,100570.91
2023-05-21T18:03:46.966Z,100562.16
2023-05-21T18:07:48.432Z,100573.69
2023-05-21T18:11:49.920Z,100573.00
2023-05-21T18:15:51.372Z,100565.09
2023-05-21T18:19:52.766Z,100574.44
2023-05-21T18:23:55.112Z,100567.53
2023-05-21T18:27:56.591Z,100572.13
2023-05-21T18:31:58.001Z,100568.38
2023-05-21T18:35:59.702Z,100569.38
2023-05-21T18:40:01.241Z,100570.59
2023-05-21T18:44:02.822Z,100568.44
2023-05-21T18:48:04.605Z,100562.97
2023-05-21T18:52:06.401Z,100574.88
2023-05-21T18:56:09.883Z,100570.44
2023-05-21T19:00:12.654Z,100567.25
2023-05-21T19:04:14.129Z,100570.50
2023-05-21T19:08:15.649Z,100570.72
2023-05-21T19:12:17.121Z,100564.50
2023-05-21T19:16:18.533Z,100570.44
2023-05-21T19:20:24.526Z,100576.53
2023-05-21T19:24:26.217Z,100562.63
2023-05-21T19:28:27.643Z,100559.59
2023-05-21T19:32:29.060Z,100561.97
2023-05-21T19:36:40.802Z,100570.84
2023-05-21T19:40:50.317Z,100566.22
2023-05-21T19:44:51.808Z,100578.25
2023-05-21T19:48:53.263Z,100584.50
2023-05-21T19:52:56.996Z,100589.88
2023-05-21T19:56:58.590Z,100588.31
2023-05-21T20:01:00.334Z,100583.28
2023-05-21T20:05:01.889Z,100586.81
2023-05-21T20:09:07.232Z,100583.06
2023-05-21T20:13:09.064Z,100584.28
2023-05-21T20:17:11.662Z,100591.41
2023-05-21T20:21:20.041Z,100588.06
2023-05-21T20:25:21.481Z,100592.63
2023-05-21T20:29:22.880Z,100592.25
2023-05-21T20:33:25.390Z,100589.31
2023-05-21T20:37:26.748Z,100586.47
2023-05-21T20:41:35.718Z,100583.94
2023-05-21T20:45:39.253Z,100587.06
2023-05-21T20:49:40.746Z,100587.53
2023-05-21T20:53:42.590Z,100581.50
2023-05-21T20:57:43.981Z,100581.31
2023-05-21T21:01:45.434Z,100573.66
2023-05-21T21:05:47.182Z,100574.28
2023-05-21T21:09:49.231Z,100577.13
2023-05-21T21:13:50.978Z,100575.31
2023-05-21T21:17:52.526Z,100578.47
2023-05-21T21:21:54.205Z,100580.72
2023-05-21T21:25:56.409Z,100579.91
2023-05-21T21:29:57.881Z,100578.44
2023-05-21T21:33:59.546Z,100573.91
2023-05-21T21:38:01.408Z,100568.94
2023-05-21T21:42:02.972Z,100568.09
2023-05-21T21:46:04.369Z,100580.97
2023-05-21T21:50:06.728Z,100570.16
2023-05-21T21:54:08.208Z,100571.22
2023-05-21T21:58:09.564Z,100572.03
2023-05-21T22:02:11.038Z,100574.13
2023-05-21T22:06:15.442Z,100576.81
2023-05-21T22:10:17.929Z,100569.53
2023-05-21T22:14:19.375Z,100565.22
2023-05-21T22:18:38.772Z,100566.03
2023-05-21T22:22:41.472Z,100570.59
2023-05-21T22:26:43.410Z,100561.69
2023-05-21T22:30:44.856Z,100566.06
2023-05-21T22:34:46.309Z,100566.47
2023-05-21T22:38:47.736Z,100567.94
2023-05-21T22:42:52.012Z,100567.31
2023-05-21T22:46:54.364Z,100577.22
2023-05-21T22:50:58.075Z,100571.22
2023-05-21T22:55:00.507Z,100577.22
2023-05-21T22:59:02.053Z,100573.09
2023-05-21T23:03:04.499Z,100576.59
2023-05-21T23:07:06.046Z,100586.13
2023-05-21T23:11:07.578Z,100584.25
2023-05-21T23:15:09.787Z,100584.66
2023-05-21T23:19:14.493Z,100584.84
2023-05-21T23:23:15.988Z,100590.66
2023-05-21T23:27:17.528Z,100586.34
2023-05-21T23:31:18.972Z,100594.34
2023-05-21T23:35:20.513Z,100592.28
2023-05-21T23:39:22.207Z,100592.50
2023-05-21T23:43:23.642Z,100597.25
2023-05-21T23:47:25.840Z,100593.31
2023-05-21T23:51:27.359Z,100585.06
2023-05-21T23:55:28.721Z,100587.94
2023-05-21T23:59:33.101Z,100585.25
